Time;durP1;ratioP1;P1;durP2;ratioP2;P2;SDS_P1;SDS_P2;PMS_P1;PMS_P2;Temp;Humidity;BMP_temperature;BMP_pressure;BME280_temperature;BME280_humidity;BME280_pressure;Samples;Min_cycle;Max_cycle;Signal;HPM_P1;HPM_P2
2022/05/23 00:01:59;;;;;;;3.50;1.55;;;;;;;13.71;58.35;99507.72;4185320;34;34946;-77
2022/05/23 00:04:46;;;;;;;5.85;2.05;;;;;;;13.69;59.32;99501.75;4193938;34;34387;-77
2022/05/23 00:07:35;;;;;;;3.53;1.58;;;;;;;13.65;59.50;99503.53;4184288;34;34658;-77
2022/05/23 00:10:22;;;;;;;5.00;1.30;;;;;;;13.56;59.61;99497.31;4184073;34;35022;-77
2022/05/23 00:13:08;;;;;;;3.72;1.50;;;;;;;13.63;59.43;99503.06;4184496;34;34868;-77
2022/05/23 00:15:55;;;;;;;3.65;1.60;;;;;;;13.57;59.29;99504.41;4183558;34;34206;-77
2022/05/23 00:18:44;;;;;;;6.25;2.10;;;;;;;13.49;59.29;99500.59;4183797;34;34750;-77
2022/05/23 00:21:31;;;;;;;2.60;1.45;;;;;;;13.58;59.28;99500.53;4185826;34;35678;-77
2022/05/23 00:24:20;;;;;;;4.47;1.60;;;;;;;13.58;59.28;99495.81;4184040;34;34599;-76
2022/05/23 00:27:08;;;;;;;3.65;1.70;;;;;;;13.46;59.69;99496.56;4183999;34;34986;-76
2022/05/23 00:29:55;;;;;;;2.78;1.48;;;;;;;13.08;60.61;99498.50;4183196;34;34594;-77
2022/05/23 00:35:52;;;;;;;5.53;1.62;;;;;;;13.38;60.00;99496.63;4185505;34;35874;-77
2022/05/23 00:38:39;;;;;;;3.67;1.80;;;;;;;13.40;60.13;99492.38;4186183;34;35422;-77
2022/05/23 00:44:34;;;;;;;4.68;1.70;;;;;;;13.62;59.38;99496.75;4186181;34;35698;-76
2022/05/23 00:47:23;;;;;;;5.22;1.58;;;;;;;13.57;59.58;99493.41;4185838;34;35472;-77
2022/05/23 00:50:14;;;;;;;5.32;1.70;;;;;;;13.59;59.62;99494.69;4187075;34;33182;-77
2022/05/23 00:53:01;;;;;;;4.82;2.05;;;;;;;13.51;59.89;99498.28;4176089;34;34629;-77
2022/05/23 00:55:48;;;;;;;5.57;1.75;;;;;;;13.55;59.82;99495.66;4195148;34;34976;-77
2022/05/23 00:58:39;;;;;;;4.55;1.70;;;;;;;13.74;59.20;99504.28;4184751;34;34819;-77
2022/05/23 01:01:28;;;;;;;2.97;1.60;;;;;;;13.28;60.27;99504.09;4185275;34;35105;-76
2022/05/23 01:04:14;;;;;;;3.85;1.75;;;;;;;12.28;63.02;99499.88;4185463;34;34624;-76
2022/05/23 01:07:00;;;;;;;4.75;1.42;;;;;;;12.64;62.74;99503.38;4194208;34;36020;-76
2022/05/23 01:09:48;;;;;;;3.92;1.80;;;;;;;13.20;60.43;99498.59;4186409;34;35573;-76
2022/05/23 01:12:35;;;;;;;5.37;2.20;;;;;;;12.63;62.06;99499.81;4186035;34;34344;-77
2022/05/23 01:15:26;;;;;;;4.12;2.00;;;;;;;12.78;61.81;99498.47;4194645;34;34251;-77
2022/05/23 01:18:13;;;;;;;3.28;1.50;;;;;;;13.46;59.90;99496.56;4185640;34;34947;-76
2022/05/23 01:21:01;;;;;;;7.87;1.67;;;;;;;12.84;61.44;99494.41;4185704;34;35406;-76
2022/05/23 01:23:56;;;;;;;5.50;1.83;;;;;;;12.18;63.93;99499.41;4184166;34;35152;-76
2022/05/23 01:26:42;;;;;;;4.35;1.77;;;;;;;12.60;62.17;99495.78;4185954;34;34617;-76
2022/05/23 01:29:29;;;;;;;3.42;1.65;;;;;;;13.15;61.12;99499.63;4187485;34;36048;-76
2022/05/23 01:32:16;;;;;;;4.45;1.87;;;;;;;13.41;60.52;99494.00;4186450;34;35574;-76
2022/05/23 01:35:07;;;;;;;4.40;1.92;;;;;;;13.39;60.36;99492.72;4195276;34;34420;-77
2022/05/23 01:37:54;;;;;;;3.00;1.40;;;;;;;13.09;61.10;99480.84;4195241;34;34569;-77
2022/05/23 01:40:40;;;;;;;4.03;1.90;;;;;;;13.00;61.51;99475.41;4185311;34;35035;-77
2022/05/23 01:43:27;;;;;;;2.42;1.42;;;;;;;13.17;61.13;99469.00;4185576;34;34479;-77
2022/05/23 01:46:20;;;;;;;7.10;1.98;;;;;;;12.74;61.37;99470.03;4186217;34;35267;-77
2022/05/23 01:49:08;;;;;;;4.82;2.03;;;;;;;13.32;60.15;99462.97;4186307;34;34489;-77
2022/05/23 01:51:55;;;;;;;5.37;2.22;;;;;;;13.19;61.43;99469.50;4188201;34;35770;-77
2022/05/23 01:54:42;;;;;;;4.12;2.12;;;;;;;13.36;61.22;99472.16;4194463;34;35691;-77
2022/05/23 01:57:31;;;;;;;3.37;1.85;;;;;;;13.60;60.31;99470.69;4195089;34;35266;-77
2022/05/23 02:03:23;;;;;;;2.92;1.80;;;;;;;13.34;60.84;99457.94;4193794;34;34290;-77
2022/05/23 02:06:11;;;;;;;3.80;1.52;;;;;;;12.93;62.01;99461.38;4186375;34;36488;-77
2022/05/23 02:08:58;;;;;;;3.85;1.62;;;;;;;13.07;61.97;99463.91;4193627;34;34479;-77
2022/05/23 02:11:45;;;;;;;4.43;2.45;;;;;;;12.69;62.80;99470.19;4174545;34;34370;-77
2022/05/23 02:14:35;;;;;;;2.30;1.50;;;;;;;13.01;61.11;99466.03;4184107;34;34740;-77
2022/05/23 02:17:23;;;;;;;4.47;1.90;;;;;;;13.02;61.18;99457.44;4194193;34;34822;-77
2022/05/23 02:20:11;;;;;;;1.80;1.25;;;;;;;13.00;61.53;99459.69;4194534;34;34297;-77
2022/05/23 02:22:59;;;;;;;3.20;1.77;;;;;;;12.92;61.16;99457.84;4193419;34;35573;-77
2022/05/23 02:25:46;;;;;;;5.40;1.90;;;;;;;12.88;61.04;99458.81;4185526;34;36260;-77
2022/05/23 02:28:35;;;;;;;4.07;1.60;;;;;;;12.88;61.34;99465.09;4186782;34;34853;-77
2022/05/23 02:31:22;;;;;;;4.10;1.60;;;;;;;12.98;59.66;99462.00;4186150;34;33197;-76
2022/05/23 02:34:10;;;;;;;3.85;1.90;;;;;;;12.65;61.08;99463.75;4185464;34;36788;-77
2022/05/23 02:36:56;;;;;;;4.47;1.85;;;;;;;12.66;61.55;99459.87;4185213;34;34850;-77
2022/05/23 02:39:44;;;;;;;4.80;1.60;;;;;;;11.35;65.69;99461.91;4193449;34;34845;-77
2022/05/23 02:42:34;;;;;;;4.28;1.70;;;;;;;12.47;62.40;99463.81;4185175;34;34461;-77
2022/05/23 02:45:21;;;;;;;4.05;1.73;;;;;;;12.68;61.05;99460.34;4186779;34;34282;-77
2022/05/23 02:48:07;;;;;;;4.35;1.65;;;;;;;12.89;60.20;99457.66;4194173;34;34532;-77
2022/05/23 02:50:54;;;;;;;5.20;1.50;;;;;;;12.75;60.65;99461.47;4175676;34;34903;-77
2022/05/23 02:53:40;;;;;;;2.30;1.58;;;;;;;12.73;60.94;99458.22;4186347;34;34378;-77
2022/05/23 02:56:26;;;;;;;4.40;1.92;;;;;;;12.63;61.51;99455.03;4188416;34;34714;-77
2022/05/23 02:59:13;;;;;;;6.85;1.90;;;;;;;11.66;64.92;99462.56;4185798;34;34903;-77
2022/05/23 03:05:05;;;;;;;4.12;1.87;;;;;;;12.27;63.38;99448.84;4192417;34;34305;-77
2022/05/23 03:07:51;;;;;;;4.43;1.60;;;;;;;12.65;62.52;99463.75;4186337;34;35193;-77
2022/05/23 03:10:38;;;;;;;4.05;1.73;;;;;;;12.37;62.58;99464.16;4186284;34;34956;-76
2022/05/23 03:13:25;;;;;;;4.03;1.73;;;;;;;12.45;61.67;99459.78;4184611;34;36276;-77
2022/05/23 03:16:12;;;;;;;4.22;2.12;;;;;;;12.38;62.02;99465.78;4184324;34;35279;-77
2022/05/23 03:18:59;;;;;;;3.85;1.90;;;;;;;11.59;64.20;99461.47;4185416;34;35508;-77
2022/05/23 03:27:56;;;;;;;4.50;1.95;;;;;;;10.57;69.38;99466.00;4186142;34;34197;-77
2022/05/23 03:30:44;;;;;;;3.97;1.90;;;;;;;11.66;65.19;99462.56;4185877;34;34698;-77
2022/05/23 03:33:31;;;;;;;7.12;2.40;;;;;;;11.81;64.51;99466.78;4186020;34;36016;-77
2022/05/23 03:36:17;;;;;;;2.22;1.65;;;;;;;12.24;62.96;99460.47;4184550;34;35523;-79
2022/05/23 03:39:04;;;;;;;4.47;2.00;;;;;;;12.32;62.96;99472.56;4185759;34;35238;-79
2022/05/23 03:41:52;;;;;;;6.37;2.30;;;;;;;12.32;63.27;99473.41;4185286;34;34735;-79
2022/05/23 03:44:39;;;;;;;4.53;2.10;;;;;;;12.30;63.86;99464.66;4175549;34;34709;-79
2022/05/23 03:47:25;;;;;;;8.85;2.20;;;;;;;12.32;64.08;99472.56;4193265;34;34811;-79
2022/05/23 03:50:12;;;;;;;6.87;2.67;;;;;;;12.18;64.70;99471.94;4194433;34;35299;-78
2022/05/23 03:53:00;;;;;;;5.68;2.50;;;;;;;12.07;65.54;99472.31;4193648;34;34621;-79
2022/05/23 03:55:46;;;;;;;8.05;2.08;;;;;;;12.13;66.16;99471.00;4184689;34;34432;-78
2022/05/23 03:58:33;;;;;;;4.97;2.20;;;;;;;12.36;64.38;99466.09;4185920;34;35533;-79
2022/05/23 04:01:28;;;;;;;4.30;2.40;;;;;;;12.46;63.32;99467.69;4194103;34;34093;-78
2022/05/23 04:04:15;;;;;;;7.10;3.03;;;;;;;12.34;63.77;99465.63;4194291;34;34627;-79
2022/05/23 04:07:06;;;;;;;3.75;2.35;;;;;;;12.43;63.31;99462.84;4185606;34;35050;-79
2022/05/23 04:09:54;;;;;;;4.95;2.22;;;;;;;12.56;63.53;99461.03;4184985;34;35022;-79
2022/05/23 04:12:44;;;;;;;4.87;2.20;;;;;;;12.25;63.58;99466.78;4193815;34;34335;-79
2022/05/23 04:15:32;;;;;;;5.50;2.22;;;;;;;12.35;63.33;99463.66;4185785;34;35442;-80
2022/05/23 04:18:18;;;;;;;5.28;2.78;;;;;;;12.55;63.18;99465.75;4184368;34;34945;-79
2022/05/23 04:21:05;;;;;;;3.22;1.90;;;;;;;12.50;63.81;99465.91;4185120;34;34712;-80
2022/05/23 04:23:52;;;;;;;5.75;2.28;;;;;;;12.13;63.24;99457.25;4185005;34;34394;-79
2022/05/23 04:26:38;;;;;;;5.50;2.17;;;;;;;12.66;62.32;99457.91;4194147;34;34655;-79
2022/05/23 04:29:24;;;;;;;5.97;2.05;;;;;;;12.62;62.74;99451.47;4185968;34;35060;-80
2022/05/23 04:35:16;;;;;;;4.62;2.42;;;;;;;12.98;61.82;99452.94;4182608;34;34988;-80
2022/05/23 04:38:02;;;;;;;3.62;2.10;;;;;;;12.80;61.56;99449.44;4184455;34;34718;-79
2022/05/23 04:40:49;;;;;;;7.12;2.15;;;;;;;12.83;61.65;99455.13;4183397;34;35089;-80
2022/05/23 04:43:36;;;;;;;7.75;2.05;;;;;;;12.83;61.43;99452.37;4185247;34;34569;-80
2022/05/23 04:46:22;;;;;;;7.53;2.42;;;;;;;13.47;59.69;99451.38;4172384;34;34327;-79
2022/05/23 04:52:19;;;;;;;3.95;1.80;;;;;;;12.71;62.16;99462.44;4184309;34;34566;-79
2022/05/23 04:55:06;;;;;;;7.55;2.40;;;;;;;11.87;66.45;99472.97;4186556;34;34529;-80
2022/05/23 04:57:54;;;;;;;4.07;2.00;;;;;;;12.88;63.30;99469.81;4176770;34;35204;-80
2022/05/23 05:00:42;;;;;;;4.75;2.10;;;;;;;13.12;62.36;99472.78;4183670;34;34613;-81
2022/05/23 05:03:34;;;;;;;4.78;1.80;;;;;;;13.12;61.87;99469.19;4185629;34;34493;-81
2022/05/23 05:06:22;;;;;;;3.17;1.48;;;;;;;12.12;65.74;99480.38;4187662;34;34747;-80
2022/05/23 05:09:08;;;;;;;3.95;2.28;;;;;;;12.14;65.61;99478.09;4194244;34;33863;-79
2022/05/23 05:11:55;;;;;;;5.20;1.62;;;;;;;12.07;64.29;99488.78;4184986;34;34760;-79
2022/05/23 05:14:42;;;;;;;4.70;2.15;;;;;;;12.53;63.45;99478.19;4187190;34;34983;-79
2022/05/23 05:17:28;;;;;;;3.67;1.83;;;;;;;13.22;62.57;99483.37;4187093;34;34644;-79
2022/05/23 05:20:18;;;;;;;4.75;1.42;;;;;;;13.37;60.84;99489.47;4189250;34;34132;-79
2022/05/23 05:23:08;;;;;;;3.37;1.37;;;;;;;14.04;58.96;99479.44;4186615;34;34167;-78
2022/05/23 05:25:55;;;;;;;3.37;1.60;;;;;;;14.13;59.68;99485.66;4186329;34;35953;-80
2022/05/23 05:28:42;;;;;;;2.35;1.60;;;;;;;14.59;58.99;99469.97;4196391;34;34807;-80
2022/05/23 05:31:49;;;;;;;7.15;2.22;;;;;;;14.81;59.21;99480.59;4186277;34;33897;-79
2022/05/23 05:34:40;;;;;;;5.18;2.10;;;;;;;15.10;57.54;99484.28;4185920;34;35265;-80
2022/05/23 05:37:36;;;;;;;5.23;2.10;;;;;;;15.07;56.79;99487.72;4195307;34;35017;-78
2022/05/23 05:40:25;;;;;;;2.70;1.50;;;;;;;15.26;54.78;99484.41;4182326;34;34936;-79
2022/05/23 05:43:21;;;;;;;3.12;2.00;;;;;;;15.34;55.57;99483.47;4187389;34;33632;-82
2022/05/23 05:46:13;;;;;;;4.53;1.52;;;;;;;15.76;54.25;99479.62;4187035;34;34349;-78
2022/05/23 05:49:03;;;;;;;4.90;1.92;;;;;;;16.07;53.79;99474.22;4187167;34;34566;-79
2022/05/23 05:51:51;;;;;;;3.28;1.80;;;;;;;16.05;53.18;99482.06;4185309;34;34590;-78
2022/05/23 05:54:39;;;;;;;7.87;1.83;;;;;;;16.00;54.66;99479.56;4185402;34;35351;-78
2022/05/23 05:57:26;;;;;;;8.18;1.50;;;;;;;16.50;53.84;99486.44;4187731;34;35685;-79
2022/05/23 06:00:12;;;;;;;5.05;2.08;;;;;;;16.54;53.37;99492.91;4196322;34;34931;-79
2022/05/23 06:03:01;;;;;;;4.05;1.70;;;;;;;16.39;52.53;99483.41;4187554;34;34609;-81
2022/05/23 06:12:05;;;;;;;3.30;1.20;;;;;;;16.98;52.09;99490.09;4192731;34;34831;-79
2022/05/23 06:14:52;;;;;;;0.88;0.75;;;;;;;16.82;48.01;99487.34;4185964;34;34952;-80
2022/05/23 06:17:42;;;;;;;3.62;1.05;;;;;;;16.67;47.50;99490.84;4186545;34;35053;-79
2022/05/23 06:20:28;;;;;;;3.00;0.93;;;;;;;17.22;45.87;99488.31;4184962;34;35363;-78
2022/05/23 06:23:14;;;;;;;3.53;0.90;;;;;;;17.04;45.83;99487.84;4187046;34;35751;-76
2022/05/23 06:26:03;;;;;;;7.25;1.10;;;;;;;17.16;46.37;99495.25;4196237;34;34443;-77
2022/05/23 06:28:52;;;;;;;5.37;1.10;;;;;;;17.52;43.48;99502.44;4186995;34;35228;-77
2022/05/23 06:31:41;;;;;;;2.95;1.12;;;;;;;17.68;45.05;99494.91;4185392;34;34652;-78
2022/05/23 06:34:32;;;;;;;;;;;;;;;17.82;43.78;99490.87;4183443;34;35764;-78
2022/05/23 06:37:18;;;;;;;3.25;1.40;;;;;;;17.81;44.36;99489.25;4184672;34;34796;-78
2022/05/23 06:40:07;;;;;;;2.30;0.90;;;;;;;17.89;45.03;99479.94;4178846;34;35041;-75
2022/05/23 06:42:55;;;;;;;5.10;1.10;;;;;;;17.90;44.40;99479.56;4194457;34;35223;-78
2022/05/23 06:45:46;;;;;;;3.28;1.40;;;;;;;18.36;45.88;99476.13;4191973;34;35976;-80
2022/05/23 06:48:42;;;;;;;2.17;1.35;;;;;;;18.12;43.98;99466.13;4184339;34;34609;-80
2022/05/23 06:51:30;;;;;;;3.83;0.90;;;;;;;18.10;43.89;99457.38;4191298;34;36359;-79
2022/05/23 06:54:20;;;;;;;14.30;1.70;;;;;;;18.46;44.94;99464.41;4185888;34;34300;-79
2022/05/23 06:57:07;;;;;;;1.87;1.05;;;;;;;18.34;43.89;99467.37;4190479;34;35930;-80
2022/05/23 06:59:54;;;;;;;3.60;1.33;;;;;;;18.67;42.99;99466.78;4185045;34;35136;-79
2022/05/23 07:02:41;;;;;;;7.68;1.65;;;;;;;18.67;42.55;99466.78;4186407;34;34498;-79
2022/05/23 07:14:43;;;;;;;5.82;1.30;;;;;;;19.39;43.83;99452.09;4184981;34;34287;-79
2022/05/23 07:17:30;;;;;;;4.72;1.40;;;;;;;19.18;41.19;99457.31;4186260;34;35567;-79
2022/05/23 07:20:17;;;;;;;5.68;1.40;;;;;;;19.09;41.49;99458.38;4185786;34;34590;-79
2022/05/23 07:23:06;;;;;;;2.67;1.20;;;;;;;19.39;43.04;99452.09;4192409;34;35342;-79
2022/05/23 07:25:53;;;;;;;2.03;1.02;;;;;;;19.58;41.56;99453.97;4183921;34;35293;-80
2022/05/23 07:28:44;;;;;;;2.97;1.05;;;;;;;19.51;41.60;99442.72;4184694;34;35369;-80
2022/05/23 07:31:31;;;;;;;4.53;1.15;;;;;;;20.02;40.55;99433.88;4194900;34;34488;-80
2022/05/23 07:34:18;;;;;;;1.83;0.90;;;;;;;20.46;42.49;99435.94;4184469;34;34625;-80
2022/05/23 07:37:04;;;;;;;4.20;1.15;;;;;;;19.45;38.68;99439.47;4188976;34;33668;-80
2022/05/23 07:39:50;;;;;;;4.03;0.80;;;;;;;19.94;38.42;99433.00;4185562;34;34253;-82
2022/05/23 07:42:39;;;;;;;3.53;1.37;;;;;;;20.26;42.46;99437.31;4184146;34;36037;-82
2022/05/23 07:45:26;;;;;;;6.30;1.10;;;;;;;19.77;40.48;99436.34;4185365;34;35813;-81
2022/05/23 07:48:14;;;;;;;4.37;1.00;;;;;;;20.31;39.12;99428.63;4185584;34;34359;-81
2022/05/23 07:51:00;;;;;;;3.45;1.10;;;;;;;20.63;38.85;99440.09;4188371;34;34739;-81
2022/05/23 08:03:08;;;;;;;8.63;1.20;;;;;;;20.83;36.07;99426.75;4186877;34;34329;-81
2022/05/23 08:05:56;;;;;;;3.28;1.12;;;;;;;19.76;37.64;99410.53;4187154;34;35520;-81
2022/05/23 08:08:42;;;;;;;2.87;0.90;;;;;;;19.95;37.43;99417.09;4185891;34;34396;-83
2022/05/23 08:11:28;;;;;;;4.03;1.10;;;;;;;19.81;37.50;99422.50;4184460;34;33757;-80
2022/05/23 08:14:16;;;;;;;2.45;1.12;;;;;;;19.36;37.88;99413.16;4186540;34;34837;-81
2022/05/23 08:17:04;;;;;;;3.03;1.00;;;;;;;18.98;37.96;99414.97;4189752;34;35064;-81
2022/05/23 08:19:51;;;;;;;2.92;0.98;;;;;;;19.26;36.60;99425.69;4191472;34;34906;-81
2022/05/23 08:22:38;;;;;;;10.00;2.60;;;;;;;19.35;36.90;99411.53;4183029;34;34797;-80
2022/05/23 08:25:25;;;;;;;5.35;0.80;;;;;;;19.66;36.97;99413.97;4187208;34;34354;-79
2022/05/23 08:28:11;;;;;;;2.05;0.80;;;;;;;20.24;37.00;99412.66;4186419;34;35055;-79
2022/05/23 08:30:58;;;;;;;4.03;0.93;;;;;;;21.03;35.16;99403.06;4186499;34;34873;-82
2022/05/23 08:33:45;;;;;;;3.42;0.90;;;;;;;21.24;34.45;99401.59;4186126;34;34128;-81
2022/05/23 08:36:32;;;;;;;5.00;1.48;;;;;;;21.86;35.55;99398.75;4194448;34;34704;-82
2022/05/23 08:39:20;;;;;;;5.03;1.35;;;;;;;20.74;34.13;99395.66;4183738;34;35742;-82
2022/05/23 08:42:16;;;;;;;2.70;1.10;;;;;;;21.60;34.02;99396.22;4184740;34;34182;-84
2022/05/23 08:45:16;;;;;;;5.43;1.10;;;;;;;22.22;34.61;99391.28;4185595;34;34012;-80
2022/05/23 08:48:18;;;;;;;2.65;1.20;;;;;;;22.34;36.52;99390.13;4184357;34;34571;-81
2022/05/23 08:51:15;;;;;;;6.57;1.50;;;;;;;22.23;33.33;99387.31;4192441;34;34759;-82
2022/05/23 08:54:05;;;;;;;6.05;1.23;;;;;;;22.58;32.99;99382.97;4183921;34;34852;-80
2022/05/23 08:56:57;;;;;;;4.20;1.05;;;;;;;22.88;33.89;99374.19;4194158;34;35192;-81
2022/05/23 08:59:47;;;;;;;2.30;0.77;;;;;;;23.11;32.34;99378.56;4186978;34;34977;-81
2022/05/23 09:02:42;;;;;;;1.67;0.82;;;;;;;22.96;31.58;99365.81;4195040;34;34663;-84
2022/05/23 09:05:41;;;;;;;1.92;0.70;;;;;;;22.91;33.02;99364.22;4188230;34;35038;-80
2022/05/23 09:08:55;;;;;;;2.87;0.93;;;;;;;23.49;33.89;99371.28;4187256;34;35251;-81
2022/05/23 09:11:44;;;;;;;3.55;1.17;;;;;;;23.52;32.15;99367.66;4185135;34;34180;-82
2022/05/23 09:14:30;;;;;;;4.05;1.10;;;;;;;22.54;32.65;99361.81;4187836;34;35048;-82
2022/05/23 09:17:21;;;;;;;6.80;1.20;;;;;;;22.06;32.42;99362.13;4186073;34;35754;-83
2022/05/23 09:20:11;;;;;;;;;;;;;;;22.02;32.25;99356.53;4196524;34;34983;-83
2022/05/23 09:23:00;;;;;;;3.78;1.05;;;;;;;22.86;32.86;99365.41;4194016;34;34863;-80
2022/05/23 09:25:50;;;;;;;5.57;1.23;;;;;;;21.78;32.80;99364.44;4185221;34;36056;-80
2022/05/23 09:28:38;;;;;;;5.62;1.00;;;;;;;21.71;34.08;99360.81;4194049;34;34533;-81
2022/05/23 09:31:37;;;;;;;4.60;1.25;;;;;;;22.23;34.02;99370.56;4185436;34;34119;-81
2022/05/23 09:34:30;;;;;;;3.67;1.30;;;;;;;21.45;34.30;99362.72;4192359;34;37766;-82
2022/05/23 09:37:28;;;;;;;6.45;1.27;;;;;;;22.33;34.30;99363.41;4188460;34;35451;-82
2022/05/23 09:40:30;;;;;;;3.60;1.48;;;;;;;22.24;32.65;99365.78;4190974;34;34454;-81
2022/05/23 09:49:44;;;;;;;5.53;1.52;;;;;;;23.92;33.17;99353.53;4182175;34;34631;-81
2022/05/23 09:52:32;;;;;;;5.40;2.05;;;;;;;23.87;30.81;99356.75;4174350;34;35690;-82
2022/05/23 09:55:31;;;;;;;3.60;1.10;;;;;;;23.43;29.29;99353.31;4183904;34;34351;-82
2022/05/23 09:58:46;;;;;;;5.80;1.45;;;;;;;24.30;30.20;99342.47;4184837;34;34249;-82
2022/05/23 10:01:33;;;;;;;5.12;1.02;;;;;;;22.61;30.37;99354.25;4184068;34;35944;-82
2022/05/23 10:04:26;;;;;;;4.05;1.10;;;;;;;23.28;32.04;99349.78;4183973;34;34487;-82
2022/05/23 10:07:34;;;;;;;3.17;1.12;;;;;;;22.48;30.94;99350.25;4182534;34;35242;-82
2022/05/23 10:10:28;;;;;;;3.97;1.40;;;;;;;23.16;30.68;99344.59;4193174;34;34680;-81
2022/05/23 10:13:30;;;;;;;1.23;0.93;;;;;;;23.44;30.79;99346.53;4186727;34;34970;-81
2022/05/23 10:16:51;;;;;;;3.65;1.10;;;;;;;23.41;30.11;99354.94;4185614;34;35761;-82
2022/05/23 10:19:38;;;;;;;4.80;1.30;;;;;;;23.57;29.09;99347.69;4185890;34;34298;-81
2022/05/23 10:22:25;;;;;;;3.22;1.30;;;;;;;24.16;29.73;99338.59;4183623;34;35625;-81
2022/05/23 10:25:12;;;;;;;4.97;1.23;;;;;;;23.52;29.80;99338.91;4184587;34;35016;-82
2022/05/23 10:28:21;;;;;;;3.47;1.30;;;;;;;23.04;29.97;99337.47;4185299;34;35823;-81
2022/05/23 10:31:13;;;;;;;3.95;1.58;;;;;;;23.11;30.49;99337.47;4176253;34;35039;-81
2022/05/23 10:34:05;;;;;;;2.45;1.10;;;;;;;23.80;27.94;99335.22;4186603;34;35385;-81
2022/05/23 10:36:53;;;;;;;3.20;1.02;;;;;;;23.94;27.95;99331.53;4195669;34;34994;-82
2022/05/23 10:42:49;;;;;;;3.47;1.20;;;;;;;24.59;29.01;99331.88;4192986;34;33103;-82
2022/05/23 10:45:46;;;;;;;3.25;1.40;;;;;;;25.25;29.13;99319.66;4195179;34;35298;-82
2022/05/23 10:48:44;;;;;;;3.50;1.37;;;;;;;24.36;27.55;99316.47;4186663;34;35053;-82
2022/05/23 10:51:43;;;;;;;5.87;1.20;;;;;;;26.00;26.60;99308.25;4194803;34;34945;-82
2022/05/23 10:54:44;;;;;;;4.62;1.67;;;;;;;26.03;25.55;99303.81;4194034;34;35263;-82
2022/05/23 10:57:40;;;;;;;4.45;1.30;;;;;;;23.87;27.75;99312.78;4194953;34;34326;-82
2022/05/23 11:01:07;;;;;;;2.25;1.25;;;;;;;24.60;27.20;99300.66;4187409;34;34804;-82
2022/05/23 11:04:15;;;;;;;6.12;1.50;;;;;;;25.16;27.63;99296.91;4186370;34;34912;-82
2022/05/23 11:07:14;;;;;;;3.62;1.30;;;;;;;25.82;26.08;99279.63;4192984;34;33839;-82
2022/05/23 11:10:29;;;;;;;3.85;1.48;;;;;;;25.93;25.82;99276.69;4184583;34;34680;-82
2022/05/23 11:13:37;;;;;;;5.22;1.37;;;;;;;25.09;27.19;99280.94;4194896;34;34843;-83
2022/05/23 11:16:38;;;;;;;3.22;1.27;;;;;;;24.58;28.08;99282.69;4185940;34;35541;-82
2022/05/23 11:19:28;;;;;;;3.37;1.70;;;;;;;23.46;28.86;99284.63;4186756;34;34029;-82
2022/05/23 11:22:22;;;;;;;3.80;1.50;;;;;;;24.29;27.18;99290.50;4187695;34;35470;-82
2022/05/23 11:25:30;;;;;;;4.32;1.50;;;;;;;23.53;28.08;99287.38;4195042;34;34587;-82
2022/05/23 11:34:44;;;;;;;3.67;1.50;;;;;;;24.60;27.05;99272.66;4179196;34;35209;-82
2022/05/23 11:37:45;;;;;;;3.72;1.60;;;;;;;24.79;27.59;99276.06;4193217;34;34971;-82
2022/05/23 11:40:39;;;;;;;3.53;1.50;;;;;;;23.73;28.04;99277.28;4185220;34;34599;-81
2022/05/23 11:43:27;;;;;;;5.55;1.55;;;;;;;23.70;28.05;99272.50;4185358;34;34224;-82
2022/05/23 11:46:15;;;;;;;5.18;1.10;;;;;;;24.18;27.66;99269.00;4194722;34;34610;-82
2022/05/23 11:49:02;;;;;;;4.00;1.20;;;;;;;25.06;26.42;99265.75;4193106;34;35974;-81
2022/05/23 11:52:01;;;;;;;3.70;1.12;;;;;;;25.41;27.50;99269.34;4184958;34;35808;-82
2022/05/23 11:54:47;;;;;;;3.42;1.10;;;;;;;23.93;28.19;99262.78;4194574;34;34250;-81
2022/05/23 11:57:35;;;;;;;4.60;1.40;;;;;;;23.63;29.53;99260.56;4194230;34;35580;-81
2022/05/23 12:00:31;;;;;;;2.62;1.20;;;;;;;24.13;29.14;99261.03;4193361;34;34980;-81
2022/05/23 12:03:17;;;;;;;4.53;1.27;;;;;;;24.99;28.03;99260.25;4194287;34;34948;-81
2022/05/23 12:06:15;;;;;;;4.25;1.25;;;;;;;25.11;26.86;99258.91;4185205;34;34367;-81
2022/05/23 12:09:24;;;;;;;4.20;1.80;;;;;;;25.62;27.64;99257.06;4184930;34;34343;-82
2022/05/23 12:12:27;;;;;;;4.37;1.73;;;;;;;25.38;27.04;99266.59;4185560;34;35005;-81
2022/05/23 12:15:43;;;;;;;4.35;1.60;;;;;;;25.85;26.71;99270.41;4186283;34;34623;-81
2022/05/23 12:18:38;;;;;;;5.45;1.40;;;;;;;24.64;27.60;99265.00;4175774;34;34296;-81
2022/05/23 12:21:43;;;;;;;2.97;1.37;;;;;;;23.35;30.49;99267.88;4185278;34;35310;-82
2022/05/23 12:24:32;;;;;;;5.35;1.20;;;;;;;23.84;28.93;99259.66;4186027;34;35031;-82
2022/05/23 12:27:33;;;;;;;2.97;1.50;;;;;;;24.02;29.22;99251.91;4193374;34;34972;-82
2022/05/23 12:30:26;;;;;;;4.35;1.40;;;;;;;23.15;30.10;99242.44;4194035;34;34508;-81
2022/05/23 12:33:23;;;;;;;6.00;1.30;;;;;;;24.01;28.40;99236.34;4185050;34;35712;-81
2022/05/23 12:36:10;;;;;;;4.10;1.25;;;;;;;24.90;28.07;99226.31;4194653;34;35004;-82
2022/05/23 12:39:20;;;;;;;6.55;2.25;;;;;;;25.25;29.23;99221.53;4175501;34;34873;-81
2022/05/23 12:42:14;;;;;;;3.83;1.73;;;;;;;26.01;26.54;99228.44;4186026;34;34428;-82
2022/05/23 12:45:29;;;;;;;2.20;1.40;;;;;;;24.57;27.82;99228.69;4194487;34;35572;-82
2022/05/23 12:48:22;;;;;;;3.12;1.67;;;;;;;25.10;27.66;99221.69;4184242;34;34959;-83
2022/05/23 12:51:21;;;;;;;5.75;1.55;;;;;;;24.58;27.82;99227.44;4184914;34;35811;-82
2022/05/23 12:54:45;;;;;;;2.25;1.20;;;;;;;24.80;28.18;99213.22;4184724;34;35140;-82
2022/05/23 12:57:42;;;;;;;4.43;1.52;;;;;;;24.27;28.67;99220.12;4194230;34;35293;-82
2022/05/23 13:00:38;;;;;;;5.07;1.58;;;;;;;24.08;28.64;99216.72;4185883;34;36451;-82
2022/05/23 13:03:53;;;;;;;4.90;1.20;;;;;;;24.04;28.20;99215.94;4193364;34;34689;-81
2022/05/23 13:07:02;;;;;;;4.07;1.35;;;;;;;25.10;26.86;99199.25;4192431;34;35022;-82
2022/05/23 13:09:55;;;;;;;4.00;1.40;;;;;;;25.19;26.73;99195.16;4191988;34;34221;-80
2022/05/23 13:13:11;;;;;;;3.55;1.50;;;;;;;25.31;26.39;99189.00;4184049;34;35966;-80
2022/05/23 13:16:16;;;;;;;3.47;1.37;;;;;;;24.91;27.87;99183.88;4184486;34;34907;-80
2022/05/23 13:22:23;;;;;;;1.77;1.40;;;;;;;25.50;27.10;99182.72;4191125;34;33523;-80
2022/05/23 13:25:10;;;;;;;3.30;1.30;;;;;;;26.25;27.18;99175.09;4191758;34;34545;-80
2022/05/23 13:27:58;;;;;;;3.25;1.67;;;;;;;25.91;25.79;99176.06;4183550;34;35761;-80
2022/05/23 13:30:47;;;;;;;2.80;1.50;;;;;;;25.63;26.66;99170.91;4189467;34;35026;-80
2022/05/23 13:33:35;;;;;;;6.97;1.65;;;;;;;24.07;28.12;99161.94;4183856;34;34440;-79
2022/05/23 13:36:21;;;;;;;4.10;1.80;;;;;;;24.52;28.17;99172.31;4185106;34;35528;-79
2022/05/23 13:39:16;;;;;;;5.32;1.62;;;;;;;23.84;29.13;99170.13;4177128;34;35455;-79
2022/05/23 13:42:04;;;;;;;3.17;1.58;;;;;;;24.86;27.89;99166.72;4185839;34;35192;-79
2022/05/23 13:44:51;;;;;;;2.78;1.58;;;;;;;24.81;27.48;99155.97;4184887;34;35475;-79
2022/05/23 13:47:41;;;;;;;4.82;1.52;;;;;;;25.37;28.49;99161.28;4185747;34;33906;-79
2022/05/23 13:50:32;;;;;;;6.65;2.00;;;;;;;25.90;27.33;99154.84;4186338;34;34617;-79
2022/05/23 13:53:25;;;;;;;4.62;1.75;;;;;;;25.59;26.70;99151.31;4185969;34;34217;-79
2022/05/23 13:56:13;;;;;;;5.45;1.70;;;;;;;25.85;26.82;99154.53;4195456;34;34678;-79
2022/05/23 13:59:05;;;;;;;5.37;2.37;;;;;;;25.28;27.50;99153.38;4184955;34;34045;-80
2022/05/23 14:01:55;;;;;;;5.28;2.50;;;;;;;24.69;28.56;99146.13;4175900;34;34412;-77
2022/05/23 14:04:47;;;;;;;3.37;1.75;;;;;;;23.83;29.12;99152.56;4195268;34;34389;-79
2022/05/23 14:07:36;;;;;;;5.68;2.15;;;;;;;24.28;28.81;99152.56;4193971;34;34555;-79
2022/05/23 14:10:29;;;;;;;7.45;2.72;;;;;;;24.83;29.57;99156.34;4184245;34;34707;-79
2022/05/23 14:13:19;;;;;;;4.30;2.10;;;;;;;26.00;29.41;99145.44;4183984;34;35381;-78
2022/05/23 14:16:05;;;;;;;8.03;2.33;;;;;;;24.94;28.77;99139.41;4182006;34;33864;-80
2022/05/23 14:19:13;;;;;;;9.43;2.50;;;;;;;24.80;28.61;99134.78;4190612;34;35309;-79
2022/05/23 14:22:09;;;;;;;5.15;1.80;;;;;;;25.66;28.51;99139.19;4184372;34;36097;-79
2022/05/23 14:24:58;;;;;;;3.60;2.15;;;;;;;26.21;27.74;99135.88;4195086;34;34435;-79
2022/05/23 14:27:47;;;;;;;;;;;;;;;25.88;28.74;99129.22;4184417;34;35363;-79
2022/05/23 14:30:37;;;;;;;4.57;2.10;;;;;;;26.12;30.21;99126.41;4195254;34;34259;-79
2022/05/23 14:33:31;;;;;;;6.43;2.45;;;;;;;26.82;27.68;99117.81;4195020;34;35587;-83
2022/05/23 14:36:24;;;;;;;4.40;2.20;;;;;;;25.08;28.20;99128.00;4185227;34;35918;-83